Terminal Aerodrome Forecast
Issued by NWS

Home | Current Version | Previous Version | Text Only | Print | Product List | Glossary On
Versions: 1 2 3 4 5 6 7 8 9 10 11 12 13 14 15 16
000
FTUS43 KGRB 070048 AAA
TAFRHI
TAF AMD
KRHI 070048Z 0701/0724 25009G17KT P6SM SCT120 BKN200
      TEMPO 0701/0704 33015G30KT 6SM -TSRA BKN050CB BKN080
     FM070400 35010G17KT P6SM BKN080 WS015/36035KT
     FM070800 34008KT P6SM SCT080
     FM071500 31010G17KT P6SM SCT080=

USA.gov is the U.S. government's official web portal to all federal, state and local government web resources and services.